Tippecanoe, Indiana
Current Conditions -  °F | °C
As of 10:55 PM on Saturday 24 Jan 2015 (Local Time) from KRCR Reporting Station
Overcast Overcast  
Wind Chill: 37°   Ceiling: 2100
Heat Index: 37°   Visibility: 7mi
Dew Point: 36°   Wind: 3mph
Humidity: 93%   Direction: 220°SW
Pressure: 29.7"   Gusts: NA
Location:  41.21°N, 86.11°W
Report Text: KRCR 250355Z AUTO 22003KT 7SM OVC021 03/02 A2970 RMK AO2
Loading
Personal Weather Stations






























Interactive Weather Map New forecast layout! Learn more

10-Day Weather Forecast

Advertisements
Track Severe Weather on mobile